createdAt,value
2018-08-10T00:00:42.479Z,99059.72
2018-08-10T00:03:47.506Z,99060.58
2018-08-10T00:06:52.490Z,99069.88
2018-08-10T00:09:57.482Z,99074.64
2018-08-10T00:13:02.527Z,99076.78
2018-08-10T00:16:07.543Z,99079.80
2018-08-10T00:19:12.582Z,99086.25
2018-08-10T00:22:17.560Z,99093.91
2018-08-10T00:25:22.595Z,99101.81
2018-08-10T00:28:27.613Z,99110.04
2018-08-10T00:31:32.634Z,99118.02
2018-08-10T00:34:37.670Z,99131.33
2018-08-10T00:37:43.147Z,99139.44
2018-08-10T00:40:48.150Z,99135.69
2018-08-10T00:43:53.161Z,99147.92
2018-08-10T00:46:58.194Z,99159.13
2018-08-10T00:50:04.942Z,99162.61
2018-08-10T00:53:09.974Z,99170.23
2018-08-10T00:56:14.971Z,99180.17
2018-08-10T00:59:19.978Z,99181.61
2018-08-10T01:02:24.986Z,99185.15
2018-08-10T01:05:29.983Z,99192.22
2018-08-10T01:08:35.019Z,99202.28
2018-08-10T01:11:40.190Z,99207.27
2018-08-10T01:14:45.190Z,99203.69
2018-08-10T01:17:50.200Z,99205.54
2018-08-10T01:20:55.214Z,99208.92
2018-08-10T01:24:00.217Z,99203.73
2018-08-10T01:27:09.944Z,99208.70
2018-08-10T01:30:14.976Z,99214.36
2018-08-10T01:33:19.957Z,99213.28
2018-08-10T01:36:24.937Z,99210.05
2018-08-10T01:39:29.957Z,99226.44
2018-08-10T01:42:34.979Z,99235.68
2018-08-10T01:45:39.965Z,99239.78
2018-08-10T01:48:44.952Z,99239.97
2018-08-10T01:51:49.948Z,99241.37
2018-08-10T01:54:54.953Z,99240.00
2018-08-10T01:57:59.949Z,99248.22
2018-08-10T02:01:04.967Z,99248.05
2018-08-10T02:04:09.986Z,99250.61
2018-08-10T02:07:15.166Z,99252.69
2018-08-10T02:10:20.184Z,99250.03
2018-08-10T02:13:25.191Z,99251.38
2018-08-10T02:16:30.166Z,99255.74
2018-08-10T02:19:35.201Z,99250.87
2018-08-10T02:22:40.179Z,99255.05
2018-08-10T02:25:45.178Z,99260.23
2018-08-10T02:28:50.199Z,99263.26
2018-08-10T02:31:55.467Z,99257.47
2018-08-10T02:35:00.463Z,99260.95
2018-08-10T02:38:05.496Z,99255.55
2018-08-10T02:41:10.516Z,99251.41
2018-08-10T02:44:15.500Z,99243.38
2018-08-10T02:47:22.409Z,99253.48
2018-08-10T02:50:27.443Z,99257.37
2018-08-10T02:53:32.449Z,99251.71
2018-08-10T02:56:37.441Z,99261.08
2018-08-10T02:59:43.172Z,99265.97
2018-08-10T03:02:48.150Z,99266.24
2018-08-10T03:05:53.150Z,99273.13
2018-08-10T03:08:58.172Z,99276.53
2018-08-10T03:12:03.335Z,99278.02
2018-08-10T03:15:09.815Z,99285.88
2018-08-10T03:18:14.777Z,99289.66
2018-08-10T03:21:19.771Z,99293.17
2018-08-10T03:24:24.786Z,99291.26
2018-08-10T03:27:29.772Z,99290.08
2018-08-10T03:30:34.772Z,99291.00
2018-08-10T03:33:39.787Z,99300.75
2018-08-10T03:36:44.794Z,99305.52
2018-08-10T03:39:49.797Z,99309.70
2018-08-10T03:42:54.781Z,99309.80
2018-08-10T03:45:59.778Z,99320.93
2018-08-10T03:49:05.107Z,99317.75
2018-08-10T03:52:10.238Z,99327.69
2018-08-10T03:55:15.295Z,99333.98
2018-08-10T03:58:20.291Z,99336.08
2018-08-10T04:01:25.286Z,99331.86
2018-08-10T04:04:30.292Z,99340.04
2018-08-10T04:07:35.418Z,99338.64
2018-08-10T04:10:40.422Z,99346.92
2018-08-10T04:13:45.438Z,99346.01
2018-08-10T04:16:50.417Z,99351.59
2018-08-10T04:19:55.696Z,99347.31
2018-08-10T04:23:00.686Z,99355.06
2018-08-10T04:26:05.720Z,99360.36
2018-08-10T04:29:10.746Z,99360.95
2018-08-10T04:32:15.753Z,99368.31
2018-08-10T04:35:20.733Z,99377.09
2018-08-10T04:38:25.747Z,99381.00
2018-08-10T04:41:30.734Z,99381.67
2018-08-10T04:44:35.879Z,99391.02
2018-08-10T04:47:48.941Z,99391.50
2018-08-10T04:50:53.958Z,99403.62
2018-08-10T04:53:59.067Z,99409.02
2018-08-10T04:57:04.487Z,99405.59
2018-08-10T05:00:11.614Z,99417.56
2018-08-10T05:03:16.586Z,99413.68
2018-08-10T05:06:21.584Z,99416.02
2018-08-10T05:09:26.608Z,99419.91
2018-08-10T05:12:31.594Z,99421.92
2018-08-10T05:15:36.618Z,99424.32
2018-08-10T05:18:41.570Z,99428.80
2018-08-10T05:21:46.569Z,99428.28
2018-08-10T05:24:51.583Z,99432.77
2018-08-10T05:27:56.583Z,99424.33
2018-08-10T05:31:01.895Z,99431.17
2018-08-10T05:34:07.140Z,99439.16
2018-08-10T05:37:12.408Z,99442.34
2018-08-10T05:40:17.451Z,99447.83
2018-08-10T05:43:22.540Z,99453.73
2018-08-10T05:46:27.995Z,99445.33
2018-08-10T05:49:32.954Z,99450.28
2018-08-10T05:52:38.009Z,99462.92
2018-08-10T05:55:43.098Z,99470.91
2018-08-10T05:58:48.105Z,99484.08
2018-08-10T06:01:53.204Z,99483.89
2018-08-10T06:04:58.326Z,99489.02
2018-08-10T06:08:03.403Z,99477.38
2018-08-10T06:11:08.618Z,99486.52
2018-08-10T06:14:14.790Z,99496.76
2018-08-10T06:17:19.817Z,99496.94
2018-08-10T06:20:24.833Z,99499.88
2018-08-10T06:23:29.856Z,99491.64
2018-08-10T06:26:35.035Z,99503.73
2018-08-10T06:29:40.039Z,99499.17
2018-08-10T06:32:45.028Z,99501.64
2018-08-10T06:35:50.445Z,99501.99
2018-08-10T06:38:55.784Z,99503.98
2018-08-10T06:42:00.811Z,99500.11
2018-08-10T06:45:06.130Z,99498.78
2018-08-10T06:48:11.006Z,99492.70
2018-08-10T06:51:16.132Z,99487.95
2018-08-10T06:54:21.055Z,99492.05
2018-08-10T06:57:26.048Z,99490.13
2018-08-10T07:00:31.076Z,99491.86
2018-08-10T07:03:36.019Z,99498.93
2018-08-10T07:06:41.026Z,99498.50
2018-08-10T07:09:46.105Z,99500.69
2018-08-10T07:12:51.030Z,99502.68
2018-08-10T07:15:56.038Z,99505.95
2018-08-10T07:19:01.174Z,99507.17
2018-08-10T07:22:06.197Z,99508.30
2018-08-10T07:25:11.189Z,99506.59
2018-08-10T07:28:16.176Z,99508.79
2018-08-10T07:31:21.221Z,99509.89
2018-08-10T07:34:26.203Z,99506.46
2018-08-10T07:37:31.407Z,99512.02
2018-08-10T07:40:36.430Z,99508.21
2018-08-10T07:43:41.415Z,99507.27
2018-08-10T07:46:46.523Z,99503.16
2018-08-10T07:49:51.556Z,99508.84
2018-08-10T07:52:56.669Z,99503.06
2018-08-10T07:56:01.721Z,99506.47
2018-08-10T07:59:07.330Z,99502.48
2018-08-10T08:02:12.543Z,99505.83
2018-08-10T08:05:17.641Z,99512.44
2018-08-10T08:08:22.699Z,99517.89
2018-08-10T08:11:27.789Z,99518.43
2018-08-10T08:14:32.826Z,99513.67
2018-08-10T08:17:37.910Z,99512.05
2018-08-10T08:21:15.153Z,99520.19
2018-08-10T08:24:20.215Z,99516.62
2018-08-10T08:27:25.247Z,99525.86
2018-08-10T08:30:30.286Z,99526.55
2018-08-10T08:33:46.819Z,99532.36
2018-08-10T08:36:51.893Z,99527.71
2018-08-10T08:40:08.308Z,99525.45
2018-08-10T08:43:13.669Z,99526.11
2018-08-10T08:46:18.971Z,99525.81
2018-08-10T08:49:23.714Z,99535.52
2018-08-10T08:52:28.725Z,99536.77
2018-08-10T08:55:37.695Z,99537.62
2018-08-10T08:58:43.722Z,99535.42
2018-08-10T09:01:48.745Z,99529.77
2018-08-10T09:04:59.563Z,99524.17
2018-08-10T09:08:04.580Z,99518.42
2018-08-10T09:11:09.586Z,99520.23
2018-08-10T09:14:48.843Z,99516.59
2018-08-10T09:17:53.858Z,99507.81
2018-08-10T09:20:58.871Z,99510.83
2018-08-10T09:24:03.883Z,99518.64
2018-08-10T09:27:08.908Z,99502.89
2018-08-10T09:30:15.695Z,99514.90
2018-08-10T09:33:20.710Z,99518.06
2018-08-10T09:36:25.699Z,99517.17
2018-08-10T09:39:30.772Z,99519.42
2018-08-10T09:42:35.864Z,99518.83
2018-08-10T09:45:40.911Z,99518.32
2018-08-10T09:48:45.983Z,99526.23
2018-08-10T09:51:51.247Z,99521.80
2018-08-10T09:55:31.441Z,99520.37
2018-08-10T09:58:36.563Z,99521.05
2018-08-10T10:01:43.181Z,99535.68
2018-08-10T10:04:48.271Z,99537.30
2018-08-10T10:07:53.717Z,99521.21
2018-08-10T10:10:58.791Z,99514.24
2018-08-10T10:17:14.993Z,99509.06
2018-08-10T10:20:20.066Z,99495.28
2018-08-10T10:23:25.201Z,99494.90
2018-08-10T10:26:30.238Z,99500.11
2018-08-10T10:29:35.296Z,99500.47
2018-08-10T10:32:40.698Z,99507.61
2018-08-10T10:35:45.794Z,99511.55
2018-08-10T10:38:50.866Z,99507.45
2018-08-10T10:41:56.004Z,99506.27
2018-08-10T10:45:01.109Z,99497.91
2018-08-10T10:48:06.494Z,99487.16
2018-08-10T10:51:11.511Z,99491.41
2018-08-10T10:54:16.645Z,99497.02
2018-08-10T10:57:21.655Z,99494.95
2018-08-10T11:00:26.769Z,99491.92
2018-08-10T11:03:31.831Z,99491.67
2018-08-10T11:06:36.827Z,99479.50
2018-08-10T11:10:21.844Z,99484.30
2018-08-10T11:13:26.826Z,99481.20
2018-08-10T11:16:31.839Z,99481.03
2018-08-10T11:19:36.862Z,99485.00
2018-08-10T11:22:42.218Z,99483.81
2018-08-10T11:25:47.253Z,99485.64
2018-08-10T11:28:52.205Z,99482.27
2018-08-10T11:31:57.242Z,99482.87
2018-08-10T11:35:02.266Z,99478.56
2018-08-10T11:38:07.314Z,99479.02
2018-08-10T11:41:12.344Z,99469.92
2018-08-10T11:44:17.358Z,99472.09
2018-08-10T11:47:22.396Z,99478.85
2018-08-10T11:50:27.454Z,99477.87
2018-08-10T11:53:32.524Z,99472.09
2018-08-10T11:56:38.586Z,99460.41
2018-08-10T11:59:43.636Z,99453.13
2018-08-10T12:02:48.691Z,99469.14
2018-08-10T12:05:53.810Z,99460.31
2018-08-10T12:08:58.822Z,99461.97
2018-08-10T12:12:03.862Z,99461.82
2018-08-10T12:15:10.775Z,99463.86
2018-08-10T12:18:15.838Z,99459.73
2018-08-10T12:21:21.022Z,99462.75
2018-08-10T12:24:26.051Z,99445.42
2018-08-10T12:27:31.132Z,99449.09
2018-08-10T12:30:36.214Z,99440.62
2018-08-10T12:33:41.249Z,99444.66
2018-08-10T12:36:46.324Z,99438.73
2018-08-10T12:39:51.436Z,99434.80
2018-08-10T12:42:56.459Z,99433.44
2018-08-10T12:46:01.492Z,99438.53
2018-08-10T12:49:06.504Z,99438.90
2018-08-10T12:52:11.529Z,99442.66
2018-08-10T12:55:16.594Z,99429.80
2018-08-10T12:58:21.584Z,99422.63
2018-08-10T13:01:26.590Z,99424.63
2018-08-10T13:04:31.584Z,99419.71
2018-08-10T13:07:36.900Z,99415.90
2018-08-10T13:10:42.046Z,99414.63
2018-08-10T13:13:46.955Z,99419.27
2018-08-10T13:16:51.972Z,99415.63
2018-08-10T13:19:57.010Z,99418.01
2018-08-10T13:23:02.047Z,99416.86
2018-08-10T13:26:07.137Z,99419.20
2018-08-10T13:29:12.216Z,99417.08
2018-08-10T13:32:17.331Z,99420.64
2018-08-10T13:35:22.642Z,99423.04
2018-08-10T13:38:27.611Z,99417.08
2018-08-10T13:41:32.734Z,99418.39
2018-08-10T13:44:37.751Z,99410.53
2018-08-10T13:47:43.009Z,99403.50
2018-08-10T13:50:48.135Z,99405.73
2018-08-10T13:53:53.305Z,99415.48
2018-08-10T13:56:58.399Z,99409.11
2018-08-10T14:00:04.652Z,99413.11
2018-08-10T14:03:09.733Z,99404.56
2018-08-10T14:06:14.805Z,99414.90
2018-08-10T14:09:21.265Z,99401.91
2018-08-10T14:12:26.330Z,99396.12
2018-08-10T14:15:31.635Z,99402.15
2018-08-10T14:18:36.719Z,99411.70
2018-08-10T14:21:41.766Z,99407.20
2018-08-10T14:24:46.854Z,99401.80
2018-08-10T14:27:52.354Z,99392.98
2018-08-10T14:30:57.765Z,99390.24
2018-08-10T14:34:02.910Z,99383.75
2018-08-10T14:37:07.977Z,99379.13
2018-08-10T14:40:13.250Z,99383.71
2018-08-10T14:43:18.310Z,99386.00
2018-08-10T14:46:23.367Z,99381.72
2018-08-10T14:49:28.389Z,99392.36
2018-08-10T14:52:33.411Z,99383.09
2018-08-10T14:55:38.434Z,99389.55
2018-08-10T14:58:43.481Z,99388.64
2018-08-10T15:01:48.549Z,99386.79
2018-08-10T15:04:53.573Z,99376.98
2018-08-10T15:07:58.597Z,99377.23
2018-08-10T15:11:03.668Z,99375.76
2018-08-10T15:14:09.166Z,99376.33
2018-08-10T15:17:14.184Z,99364.41
2018-08-10T15:20:19.850Z,99363.45
2018-08-10T15:23:24.883Z,99360.40
2018-08-10T15:26:29.943Z,99359.91
2018-08-10T15:29:34.945Z,99362.55
2018-08-10T15:32:40.422Z,99352.78
2018-08-10T15:35:45.405Z,99343.98
2018-08-10T15:38:50.431Z,99343.31
2018-08-10T15:41:55.522Z,99348.00
2018-08-10T15:45:00.547Z,99348.30
2018-08-10T15:48:05.630Z,99343.14
2018-08-10T15:51:10.674Z,99342.28
2018-08-10T15:54:15.738Z,99342.11
2018-08-10T15:57:20.955Z,99340.62
2018-08-10T16:00:26.203Z,99337.30
2018-08-10T16:03:31.255Z,99328.67
2018-08-10T16:06:36.342Z,99336.73
2018-08-10T16:09:41.414Z,99333.03
2018-08-10T16:12:46.527Z,99330.83
2018-08-10T16:15:51.572Z,99328.10
2018-08-10T16:18:56.662Z,99330.78
2018-08-10T16:22:01.747Z,99331.77
2018-08-10T16:25:07.914Z,99329.90
2018-08-10T16:28:13.078Z,99330.80
2018-08-10T16:31:18.141Z,99329.80
2018-08-10T16:34:23.463Z,99324.47
2018-08-10T16:37:28.669Z,99320.65
2018-08-10T16:40:33.735Z,99319.94
2018-08-10T16:43:38.800Z,99313.73
2018-08-10T16:46:43.900Z,99323.42
2018-08-10T16:49:48.929Z,99313.59
2018-08-10T16:52:54.007Z,99319.02
2018-08-10T16:55:59.132Z,99322.28
2018-08-10T16:59:04.259Z,99322.20
2018-08-10T17:02:09.999Z,99323.36
2018-08-10T17:05:15.451Z,99316.96
2018-08-10T17:08:20.501Z,99324.03
2018-08-10T17:11:25.546Z,99323.71
2018-08-10T17:14:30.635Z,99318.48
2018-08-10T17:17:35.694Z,99320.30
2018-08-10T17:20:40.715Z,99319.91
2018-08-10T17:23:45.767Z,99319.04
2018-08-10T17:26:50.777Z,99319.23
2018-08-10T17:29:56.083Z,99312.81
2018-08-10T17:33:01.131Z,99320.70
2018-08-10T17:36:06.148Z,99322.82
2018-08-10T17:39:12.966Z,99321.05
2018-08-10T17:42:17.935Z,99319.34
2018-08-10T17:45:22.981Z,99316.73
2018-08-10T17:48:27.985Z,99310.97
2018-08-10T17:52:57.586Z,99313.70
2018-08-10T17:56:02.622Z,99314.13
2018-08-10T17:59:07.923Z,99321.54
2018-08-10T18:02:12.833Z,99331.27
2018-08-10T18:05:18.316Z,99332.17
2018-08-10T18:08:23.319Z,99337.53
2018-08-10T18:11:28.492Z,99334.12
2018-08-10T18:14:33.535Z,99339.72
2018-08-10T18:17:39.370Z,99340.08
2018-08-10T18:20:44.406Z,99341.27
2018-08-10T18:23:49.931Z,99351.83
2018-08-10T18:26:54.995Z,99355.98
2018-08-10T18:30:00.047Z,99357.19
2018-08-10T18:33:05.879Z,99362.70
2018-08-10T18:36:10.914Z,99356.48
2018-08-10T18:39:15.913Z,99360.39
2018-08-10T18:42:21.060Z,99362.23
2018-08-10T18:45:26.160Z,99367.11
2018-08-10T18:48:31.654Z,99373.08
2018-08-10T18:51:36.860Z,99379.06
2018-08-10T18:54:41.978Z,99382.13
2018-08-10T18:57:47.198Z,99379.67
2018-08-10T19:00:52.322Z,99387.58
2018-08-10T19:03:57.400Z,99385.61
2018-08-10T19:07:02.481Z,99392.36
2018-08-10T19:10:08.452Z,99394.22
2018-08-10T19:13:13.615Z,99393.20
2018-08-10T19:16:18.696Z,99395.41
2018-08-10T19:19:23.852Z,99397.63
2018-08-10T19:22:28.887Z,99398.03
2018-08-10T19:25:33.942Z,99396.16
2018-08-10T19:28:38.951Z,99400.70
2018-08-10T19:31:44.049Z,99398.76
2018-08-10T19:34:49.062Z,99406.42
2018-08-10T19:37:54.139Z,99414.38
2018-08-10T19:40:59.197Z,99412.56
2018-08-10T19:44:04.289Z,99412.22
2018-08-10T19:47:09.338Z,99416.16
2018-08-10T19:50:15.708Z,99412.63
2018-08-10T19:53:20.793Z,99413.78
2018-08-10T19:56:25.850Z,99413.25
2018-08-10T19:59:30.916Z,99413.18
2018-08-10T20:02:36.110Z,99415.77
2018-08-10T20:05:41.092Z,99417.30
2018-08-10T20:08:46.095Z,99417.92
2018-08-10T20:11:51.282Z,99409.67
2018-08-10T20:14:56.321Z,99409.41
2018-08-10T20:18:01.355Z,99408.72
2018-08-10T20:21:06.456Z,99414.73
2018-08-10T20:24:11.463Z,99413.61
2018-08-10T20:27:16.512Z,99420.84
2018-08-10T20:30:21.510Z,99425.05
2018-08-10T20:33:26.585Z,99424.72
2018-08-10T20:36:31.602Z,99425.87
2018-08-10T20:39:36.613Z,99429.36
2018-08-10T20:42:41.653Z,99424.99
2018-08-10T20:45:46.670Z,99426.28
2018-08-10T20:48:51.667Z,99424.33
2018-08-10T20:51:56.670Z,99421.98
2018-08-10T20:55:01.737Z,99422.72
2018-08-10T20:58:06.742Z,99406.92
2018-08-10T21:01:11.758Z,99419.20
2018-08-10T21:04:16.805Z,99419.92
2018-08-10T21:07:21.881Z,99412.56
2018-08-10T21:10:26.862Z,99425.22
2018-08-10T21:13:31.835Z,99416.99
2018-08-10T21:16:37.084Z,99418.09
2018-08-10T21:19:42.107Z,99415.77
2018-08-10T21:22:47.150Z,99421.08
2018-08-10T21:25:52.122Z,99420.97
2018-08-10T21:28:57.118Z,99418.48
2018-08-10T21:32:02.182Z,99418.11
2018-08-10T21:35:07.312Z,99416.22
2018-08-10T21:38:12.306Z,99422.29
2018-08-10T21:41:17.295Z,99432.47
2018-08-10T21:44:22.286Z,99425.29
2018-08-10T21:47:27.286Z,99419.33
2018-08-10T21:50:32.261Z,99429.06
2018-08-10T21:53:37.319Z,99427.47
2018-08-10T21:56:42.293Z,99424.32
2018-08-10T22:03:55.891Z,99423.80
2018-08-10T22:07:00.894Z,99431.27
2018-08-10T22:10:05.939Z,99430.35
2018-08-10T22:13:16.730Z,99427.16
2018-08-10T22:16:27.337Z,99430.55
2018-08-10T22:19:32.359Z,99430.53
2018-08-10T22:22:37.333Z,99423.26
2018-08-10T22:25:42.335Z,99431.98
2018-08-10T22:28:47.359Z,99427.81
2018-08-10T22:31:52.369Z,99431.24
2018-08-10T22:34:57.390Z,99430.73
2018-08-10T22:38:02.376Z,99435.51
2018-08-10T22:41:07.379Z,99442.66
2018-08-10T22:44:12.382Z,99445.14
2018-08-10T22:47:17.382Z,99438.34
2018-08-10T22:50:22.551Z,99444.16
2018-08-10T22:53:27.577Z,99440.56
2018-08-10T22:56:32.562Z,99442.30
2018-08-10T22:59:37.570Z,99442.16
2018-08-10T23:02:42.607Z,99440.92
2018-08-10T23:05:47.660Z,99435.88
2018-08-10T23:08:52.719Z,99445.02
2018-08-10T23:11:57.660Z,99441.05
2018-08-10T23:15:02.785Z,99443.99
2018-08-10T23:18:07.783Z,99439.73
2018-08-10T23:21:12.802Z,99432.76
2018-08-10T23:24:17.833Z,99440.12
2018-08-10T23:27:22.890Z,99432.27
2018-08-10T23:30:27.959Z,99430.77
2018-08-10T23:33:32.979Z,99424.36
2018-08-10T23:36:37.983Z,99418.81
2018-08-10T23:39:43.011Z,99417.06
2018-08-10T23:42:48.030Z,99418.93
2018-08-10T23:45:53.054Z,99414.05
2018-08-10T23:48:58.079Z,99415.34
2018-08-10T23:52:03.102Z,99415.47
2018-08-10T23:55:08.758Z,99412.75
2018-08-10T23:58:13.873Z,99411.66
